Time,TemperatureF,DewpointF,PressureIn,WindDirection,WindDirectionDegrees,WindSpeedMPH,WindSpeedGustMPH,Humidity,HourlyPrecipIn,Conditions,Clouds,dailyrainin,SoftwareType,DateUTC
2013-01-01 00:00:00,70.9,61.0,30.21,ESE,106,0.0,0.0,71,0.00,,,0.00,Wunderground v.1.15,2013-01-01 05:00:00,
2013-01-01 00:01:00,70.8,60.9,30.21,ESE,105,0.0,0.0,71,0.00,,,0.00,Wunderground v.1.15,2013-01-01 05:01:00,
2013-01-01 00:03:00,70.8,61.3,30.21,ESE,103,0.0,0.0,72,0.00,,,0.00,Wunderground v.1.15,2013-01-01 05:03:00,
2013-01-01 00:07:00,70.7,61.2,30.21,ESE,106,0.0,0.0,72,0.00,,,0.00,Wunderground v.1.15,2013-01-01 05:07:00,
2013-01-01 00:13:00,70.6,61.5,30.20,ESE,106,0.0,0.0,73,0.00,,,0.00,Wunderground v.1.15,2013-01-01 05:13:00,
2013-01-01 00:19:00,70.5,61.8,30.20,ESE,104,0.0,0.0,74,0.00,,,0.00,Wunderground v.1.15,2013-01-01 05:19:00,
2013-01-01 00:25:00,70.5,61.8,30.20,ESE,111,0.0,0.0,74,0.00,,,0.00,Wunderground v.1.15,2013-01-01 05:25:00,
2013-01-01 00:31:00,70.5,62.2,30.20,ESE,116,0.0,0.0,75,0.00,,,0.00,Wunderground v.1.15,2013-01-01 05:31:00,
2013-01-01 00:37:00,70.6,61.5,30.20,East,96,1.0,3.0,73,0.00,,,0.00,Wunderground v.1.15,2013-01-01 05:37:00,
2013-01-01 00:42:00,70.7,61.2,30.20,ESE,111,1.0,3.0,72,0.00,,,0.00,Wunderground v.1.15,2013-01-01 05:42:00,
2013-01-01 00:47:00,70.9,61.0,30.20,East,86,2.0,3.0,71,0.00,,,0.00,Wunderground v.1.15,2013-01-01 05:47:00,
2013-01-01 00:53:00,70.7,60.8,30.20,ESE,117,0.0,2.0,71,0.00,,,0.00,Wunderground v.1.15,2013-01-01 05:53:00,
2013-01-01 00:59:00,70.6,60.7,30.20,ESE,111,0.0,2.0,71,0.00,,,0.00,Wunderground v.1.15,2013-01-01 05:59:00,
2013-01-01 01:05:00,70.5,60.6,30.20,ESE,110,0.0,1.0,71,0.00,,,0.00,Wunderground v.1.15,2013-01-01 06:05:00,
2013-01-01 01:11:00,70.4,60.5,30.19,SE,133,0.0,0.0,71,0.00,,,0.00,Wunderground v.1.15,2013-01-01 06:11:00,
2013-01-01 01:17:00,70.3,60.4,30.19,SE,139,0.0,0.0,71,0.00,,,0.00,Wunderground v.1.15,2013-01-01 06:17:00,
2013-01-01 01:22:00,70.3,60.4,30.20,SSE,162,0.0,1.0,71,0.00,,,0.00,Wunderground v.1.15,2013-01-01 06:22:00,
2013-01-01 01:27:00,70.2,60.7,30.19,SSE,148,0.0,1.0,72,0.00,,,0.00,Wunderground v.1.15,2013-01-01 06:27:00,
2013-01-01 01:32:00,69.9,60.5,30.19,East,90,1.0,1.0,72,0.00,,,0.00,Wunderground v.1.15,2013-01-01 06:32:00,
2013-01-01 01:37:00,69.7,60.3,30.19,SSE,150,0.0,1.0,72,0.00,,,0.00,Wunderground v.1.15,2013-01-01 06:37:00,
2013-01-01 01:42:00,69.6,60.6,30.19,ESE,117,0.0,0.0,73,0.00,,,0.00,Wunderground v.1.15,2013-01-01 06:42:00,
2013-01-01 01:48:00,69.4,60.4,30.19,ESE,115,0.0,0.0,73,0.00,,,0.00,Wunderground v.1.15,2013-01-01 06:48:00,
2013-01-01 01:54:00,69.2,60.2,30.19,ESE,103,0.0,0.0,73,0.00,,,0.00,Wunderground v.1.15,2013-01-01 06:54:00,
2013-01-01 02:00:00,69.2,60.6,30.19,SE,136,0.0,0.0,74,0.00,,,0.00,Wunderground v.1.15,2013-01-01 07:00:00,
2013-01-01 02:05:00,69.2,60.2,30.19,SE,132,0.0,1.0,73,0.00,,,0.00,Wunderground v.1.15,2013-01-01 07:05:00,
2013-01-01 02:10:00,69.3,60.3,30.19,ENE,77,0.0,1.0,73,0.00,,,0.00,Wunderground v.1.15,2013-01-01 07:10:00,
2013-01-01 02:15:00,69.5,60.5,30.19,SE,138,0.0,2.0,73,0.00,,,0.00,Wunderground v.1.15,2013-01-01 07:15:00,
2013-01-01 02:20:00,69.4,60.4,30.19,SE,129,0.0,0.0,73,0.00,,,0.00,Wunderground v.1.15,2013-01-01 07:20:00,
2013-01-01 02:25:00,69.6,60.2,30.19,ESE,103,0.0,1.0,72,0.00,,,0.00,Wunderground v.1.15,2013-01-01 07:25:00,
2013-01-01 02:30:00,69.6,60.2,30.18,ESE,115,0.0,0.0,72,0.00,,,0.00,Wunderground v.1.15,2013-01-01 07:30:00,
2013-01-01 02:35:00,69.5,60.1,30.19,ESE,117,0.0,0.0,72,0.00,,,0.00,Wunderground v.1.15,2013-01-01 07:35:00,
2013-01-01 02:40:00,69.3,59.9,30.18,ESE,103,0.0,2.0,72,0.00,,,0.00,Wunderground v.1.15,2013-01-01 07:40:00,
2013-01-01 02:45:00,69.5,60.1,30.18,East,82,1.0,4.0,72,0.00,,,0.00,Wunderground v.1.15,2013-01-01 07:45:00,
2013-01-01 02:50:00,69.5,60.1,30.18,East,90,0.0,0.0,72,0.00,,,0.00,Wunderground v.1.15,2013-01-01 07:50:00,
2013-01-01 02:55:00,69.4,60.4,30.19,ESE,103,0.0,1.0,73,0.00,,,0.00,Wunderground v.1.15,2013-01-01 07:55:00,
2013-01-01 03:00:00,69.4,60.4,30.19,ESE,103,0.0,0.0,73,0.00,,,0.00,Wunderground v.1.15,2013-01-01 08:00:00,
2013-01-01 03:05:00,69.4,60.4,30.19,ESE,104,0.0,1.0,73,0.00,,,0.00,Wunderground v.1.15,2013-01-01 08:05:00,
2013-01-01 03:10:00,69.3,60.3,30.19,ESE,104,0.0,0.0,73,0.00,,,0.00,Wunderground v.1.15,2013-01-01 08:10:00,
2013-01-01 03:15:00,69.4,60.4,30.19,ESE,103,0.0,1.0,73,0.00,,,0.00,Wunderground v.1.15,2013-01-01 08:15:00,
2013-01-01 03:20:00,69.4,60.4,30.19,ENE,72,0.0,1.0,73,0.00,,,0.00,Wunderground v.1.15,2013-01-01 08:20:00,
2013-01-01 03:25:00,69.6,60.6,30.19,SE,142,0.0,2.0,73,0.00,,,0.00,Wunderground v.1.15,2013-01-01 08:25:00,
2013-01-01 03:30:00,69.7,60.3,30.18,ESE,111,0.0,1.0,72,0.00,,,0.00,Wunderground v.1.15,2013-01-01 08:30:00,
2013-01-01 03:35:00,69.8,60.8,30.18,SE,134,0.0,2.0,73,0.00,,,0.00,Wunderground v.1.15,2013-01-01 08:35:00,
2013-01-01 03:40:00,69.8,60.4,30.19,SE,134,0.0,0.0,72,0.00,,,0.00,Wunderground v.1.15,2013-01-01 08:40:00,
2013-01-01 03:45:00,69.8,60.8,30.19,SE,134,0.0,1.0,73,0.00,,,0.00,Wunderground v.1.15,2013-01-01 08:45:00,
2013-01-01 03:50:00,69.7,60.7,30.18,SE,134,0.0,0.0,73,0.00,,,0.00,Wunderground v.1.15,2013-01-01 08:50:00,
2013-01-01 03:55:00,69.6,60.6,30.18,SE,134,0.0,0.0,73,0.00,,,0.00,Wunderground v.1.15,2013-01-01 08:55:00,
2013-01-01 04:00:00,69.6,60.6,30.18,SE,134,0.0,0.0,73,0.00,,,0.00,Wunderground v.1.15,2013-01-01 09:00:00,
2013-01-01 04:05:00,69.5,60.8,30.19,SE,134,0.0,0.0,74,0.00,,,0.00,Wunderground v.1.15,2013-01-01 09:05:00,
2013-01-01 04:10:00,69.3,60.7,30.19,SE,134,0.0,0.0,74,0.00,,,0.00,Wunderground v.1.15,2013-01-01 09:10:00,
2013-01-01 04:15:00,69.2,60.9,30.19,SE,134,0.0,0.0,75,0.00,,,0.00,Wunderground v.1.15,2013-01-01 09:15:00,
2013-01-01 04:20:00,68.9,61.0,30.18,SE,134,0.0,0.0,76,0.00,,,0.00,Wunderground v.1.15,2013-01-01 09:20:00,
2013-01-01 04:25:00,68.7,60.8,30.18,SE,134,0.0,0.0,76,0.00,,,0.00,Wunderground v.1.15,2013-01-01 09:25:00,
2013-01-01 04:30:00,68.6,61.1,30.18,SE,134,0.0,0.0,77,0.00,,,0.00,Wunderground v.1.15,2013-01-01 09:30:00,
2013-01-01 04:35:00,68.5,61.0,30.18,SE,125,1.0,3.0,77,0.00,,,0.00,Wunderground v.1.15,2013-01-01 09:35:00,
2013-01-01 04:40:00,68.9,61.0,30.17,ESE,115,0.0,1.0,76,0.00,,,0.00,Wunderground v.1.15,2013-01-01 09:40:00,
2013-01-01 04:45:00,69.4,61.1,30.17,NNE,22,0.0,3.0,75,0.00,,,0.00,Wunderground v.1.15,2013-01-01 09:45:00,
2013-01-01 04:51:00,69.9,61.6,30.17,ESE,117,0.0,3.0,75,0.00,,,0.00,Wunderground v.1.15,2013-01-01 09:51:00,
2013-01-01 04:56:00,70.1,61.4,30.17,East,87,5.0,7.0,74,0.00,,,0.00,Wunderground v.1.15,2013-01-01 09:56:00,
2013-01-01 05:01:00,70.3,61.2,30.17,ENE,75,2.0,5.0,73,0.00,,,0.00,Wunderground v.1.15,2013-01-01 10:01:00,
2013-01-01 05:06:00,70.3,60.8,30.17,ESE,102,2.0,5.0,72,0.00,,,0.00,Wunderground v.1.15,2013-01-01 10:06:00,
2013-01-01 05:11:00,70.3,61.2,30.17,East,95,0.0,3.0,73,0.00,,,0.00,Wunderground v.1.15,2013-01-01 10:11:00,
2013-01-01 05:16:00,70.2,61.1,30.17,East,93,1.0,5.0,73,0.00,,,0.00,Wunderground v.1.15,2013-01-01 10:16:00,
2013-01-01 05:21:00,70.2,61.1,30.16,ENE,72,0.0,3.0,73,0.00,,,0.00,Wunderground v.1.15,2013-01-01 10:21:00,
2013-01-01 05:26:00,70.1,60.7,30.16,ESE,103,0.0,3.0,72,0.00,,,0.00,Wunderground v.1.15,2013-01-01 10:26:00,
2013-01-01 05:31:00,70.2,60.7,30.16,East,96,0.0,2.0,72,0.00,,,0.00,Wunderground v.1.15,2013-01-01 10:31:00,
2013-01-01 05:36:00,70.1,60.3,30.16,ESE,117,2.0,6.0,71,0.00,,,0.00,Wunderground v.1.15,2013-01-01 10:36:00,
2013-01-01 05:41:00,70.1,60.3,30.16,SE,128,3.0,3.0,71,0.00,,,0.00,Wunderground v.1.15,2013-01-01 10:41:00,
2013-01-01 05:46:00,70.0,60.2,30.16,ESE,114,1.0,4.0,71,0.00,,,0.00,Wunderground v.1.15,2013-01-01 10:46:00,
2013-01-01 05:51:00,70.1,59.9,30.16,East,88,0.0,2.0,70,0.00,,,0.00,Wunderground v.1.15,2013-01-01 10:51:00,
2013-01-01 05:56:00,70.0,59.8,30.16,East,96,3.0,5.0,70,0.00,,,0.00,Wunderground v.1.15,2013-01-01 10:56:00,
2013-01-01 06:01:00,69.9,60.1,30.16,ENE,77,0.0,1.0,71,0.00,,,0.00,Wunderground v.1.15,2013-01-01 11:01:00,
2013-01-01 06:06:00,69.7,60.3,30.16,East,86,0.0,3.0,72,0.00,,,0.00,Wunderground v.1.15,2013-01-01 11:06:00,
2013-01-01 06:11:00,69.5,60.8,30.16,East,85,0.0,0.0,74,0.00,,,0.00,Wunderground v.1.15,2013-01-01 11:11:00,
2013-01-01 06:16:00,69.2,59.8,30.16,ESE,105,0.0,1.0,72,0.00,,,0.00,Wunderground v.1.15,2013-01-01 11:16:00,
2013-01-01 06:21:00,69.2,60.6,30.16,ESE,105,0.0,0.0,74,0.00,,,0.00,Wunderground v.1.15,2013-01-01 11:21:00,
2013-01-01 06:26:00,69.1,60.8,30.16,East,92,1.0,1.0,75,0.00,,,0.00,Wunderground v.1.15,2013-01-01 11:26:00,
2013-01-01 06:31:00,68.9,60.3,30.16,East,92,0.0,1.0,74,0.00,,,0.00,Wunderground v.1.15,2013-01-01 11:31:00,
2013-01-01 06:36:00,68.9,60.3,30.16,East,84,0.0,1.0,74,0.00,,,0.00,Wunderground v.1.15,2013-01-01 11:36:00,
2013-01-01 06:41:00,68.9,60.6,30.16,East,83,0.0,0.0,75,0.00,,,0.00,Wunderground v.1.15,2013-01-01 11:41:00,
2013-01-01 06:46:00,68.9,60.6,30.16,East,82,0.0,1.0,75,0.00,,,0.00,Wunderground v.1.15,2013-01-01 11:46:00,
2013-01-01 06:51:00,68.9,60.6,30.16,ESE,114,1.0,1.0,75,0.00,,,0.00,Wunderground v.1.15,2013-01-01 11:51:00,
2013-01-01 06:56:00,69.0,60.7,30.16,ESE,114,0.0,1.0,75,0.00,,,0.00,Wunderground v.1.15,2013-01-01 11:56:00,
2013-01-01 07:01:00,69.0,60.7,30.15,ESE,111,0.0,2.0,75,0.00,,,0.00,Wunderground v.1.15,2013-01-01 12:01:00,
2013-01-01 07:06:00,69.1,60.8,30.15,ESE,107,0.0,2.0,75,0.00,,,0.00,Wunderground v.1.15,2013-01-01 12:06:00,
2013-01-01 07:11:00,69.0,60.7,30.15,ESE,117,0.0,0.0,75,0.00,,,0.00,Wunderground v.1.15,2013-01-01 12:11:00,
2013-01-01 07:16:00,69.0,60.7,30.15,SSE,148,0.0,3.0,75,0.00,,,0.00,Wunderground v.1.15,2013-01-01 12:16:00,
2013-01-01 07:21:00,69.1,60.5,30.16,SSE,162,0.0,1.0,74,0.00,,,0.00,Wunderground v.1.15,2013-01-01 12:21:00,
2013-01-01 07:26:00,69.3,60.3,30.16,East,96,0.0,2.0,73,0.00,,,0.00,Wunderground v.1.15,2013-01-01 12:26:00,
2013-01-01 07:31:00,69.7,59.9,30.16,SSW,198,0.0,2.0,71,0.00,,,0.00,Wunderground v.1.15,2013-01-01 12:31:00,
2013-01-01 07:36:00,70.2,60.4,30.16,SW,214,0.0,2.0,71,0.00,,,0.00,Wunderground v.1.15,2013-01-01 12:36:00,
2013-01-01 07:41:00,70.5,60.6,30.16,ESE,122,0.0,1.0,71,0.00,,,0.00,Wunderground v.1.15,2013-01-01 12:41:00,
2013-01-01 07:46:00,70.8,61.3,30.16,East,101,0.0,3.0,72,0.00,,,0.00,Wunderground v.1.15,2013-01-01 12:46:00,
2013-01-01 07:51:00,71.2,61.7,30.17,ESE,106,0.0,4.0,72,0.00,,,0.00,Wunderground v.1.15,2013-01-01 12:51:00,
2013-01-01 07:56:00,71.5,61.6,30.16,ESE,103,1.0,4.0,71,0.00,,,0.00,Wunderground v.1.15,2013-01-01 12:56:00,
2013-01-01 08:01:00,71.9,61.6,30.16,SSE,159,0.0,4.0,70,0.00,,,0.00,Wunderground v.1.15,2013-01-01 13:01:00,
2013-01-01 08:06:00,71.9,61.6,30.17,ESE,111,1.0,4.0,70,0.00,,,0.00,Wunderground v.1.15,2013-01-01 13:06:00,
2013-01-01 08:11:00,71.8,61.5,30.17,ESE,102,0.0,1.0,70,0.00,,,0.00,Wunderground v.1.15,2013-01-01 13:11:00,
2013-01-01 08:17:00,71.4,61.1,30.17,ESE,108,0.0,2.0,70,0.00,,,0.00,Wunderground v.1.15,2013-01-01 13:17:00,
2013-01-01 08:22:00,71.2,60.9,30.17,East,101,0.0,2.0,70,0.00,,,0.00,Wunderground v.1.15,2013-01-01 13:22:00,
2013-01-01 08:27:00,71.5,61.6,30.17,ESE,111,0.0,2.0,71,0.00,,,0.00,Wunderground v.1.15,2013-01-01 13:27:00,
2013-01-01 08:32:00,72.4,61.7,30.17,East,90,0.0,2.0,69,0.00,,,0.00,Wunderground v.1.15,2013-01-01 13:32:00,
2013-01-01 08:37:00,72.9,62.1,30.18,SE,124,4.0,4.0,69,0.00,,,0.00,Wunderground v.1.15,2013-01-01 13:37:00,
2013-01-01 08:42:00,72.7,61.9,30.18,ESE,108,1.0,2.0,69,0.00,,,0.00,Wunderground v.1.15,2013-01-01 13:42:00,
2013-01-01 08:47:00,72.8,62.4,30.18,ESE,104,1.0,3.0,70,0.00,,,0.00,Wunderground v.1.15,2013-01-01 13:47:00,
2013-01-01 08:52:00,73.1,62.7,30.18,East,98,0.0,3.0,70,0.00,,,0.00,Wunderground v.1.15,2013-01-01 13:52:00,
2013-01-01 08:57:00,73.5,62.7,30.18,SSE,162,0.0,4.0,69,0.00,,,0.00,Wunderground v.1.15,2013-01-01 13:57:00,
2013-01-01 09:02:00,73.4,61.8,30.18,East,101,2.0,7.0,67,0.00,,,0.00,Wunderground v.1.15,2013-01-01 14:02:00,
2013-01-01 09:07:00,73.6,61.5,30.18,SW,235,0.0,7.0,66,0.00,,,0.00,Wunderground v.1.15,2013-01-01 14:07:00,
2013-01-01 09:12:00,73.8,61.3,30.18,East,87,1.0,9.0,65,0.00,,,0.00,Wunderground v.1.15,2013-01-01 14:12:00,
2013-01-01 09:17:00,74.1,61.6,30.18,SSW,210,2.0,9.0,65,0.00,,,0.00,Wunderground v.1.15,2013-01-01 14:17:00,
2013-01-01 09:22:00,73.9,61.4,30.18,East,91,4.0,7.0,65,0.00,,,0.00,Wunderground v.1.15,2013-01-01 14:22:00,
2013-01-01 09:27:00,73.8,61.7,30.18,ENE,77,2.0,7.0,66,0.00,,,0.00,Wunderground v.1.15,2013-01-01 14:27:00,
2013-01-01 09:32:00,73.8,61.7,30.19,SW,232,0.0,3.0,66,0.00,,,0.00,Wunderground v.1.15,2013-01-01 14:32:00,
2013-01-01 09:37:00,74.0,61.9,30.19,SE,138,4.0,7.0,66,0.00,,,0.00,Wunderground v.1.15,2013-01-01 14:37:00,
2013-01-01 09:42:00,74.2,62.5,30.19,ESE,104,0.0,2.0,67,0.00,,,0.00,Wunderground v.1.15,2013-01-01 14:42:00,
2013-01-01 09:47:00,74.6,62.5,30.19,ESE,122,0.0,3.0,66,0.00,,,0.00,Wunderground v.1.15,2013-01-01 14:47:00,
2013-01-01 09:52:00,75.2,63.1,30.19,SW,232,1.0,3.0,66,0.00,,,0.00,Wunderground v.1.15,2013-01-01 14:52:00,
2013-01-01 09:57:00,75.3,61.8,30.19,SSW,201,5.0,7.0,63,0.00,,,0.00,Wunderground v.1.15,2013-01-01 14:57:00,
2013-01-01 10:02:00,75.2,62.2,30.19,South,183,1.0,5.0,64,0.00,,,0.00,Wunderground v.1.15,2013-01-01 15:02:00,
2013-01-01 10:07:00,75.2,62.6,30.19,West,269,2.0,6.0,65,0.00,,,0.00,Wunderground v.1.15,2013-01-01 15:07:00,
2013-01-01 10:12:00,75.2,62.2,30.19,East,86,2.0,10.0,64,0.00,,,0.00,Wunderground v.1.15,2013-01-01 15:12:00,
2013-01-01 10:17:00,75.3,62.7,30.19,South,185,1.0,10.0,65,0.00,,,0.00,Wunderground v.1.15,2013-01-01 15:17:00,
2013-01-01 10:22:00,75.5,62.9,30.18,SSW,212,2.0,7.0,65,0.00,,,0.00,Wunderground v.1.15,2013-01-01 15:22:00,
2013-01-01 10:27:00,75.5,62.5,30.18,SE,136,1.0,9.0,64,0.00,,,0.00,Wunderground v.1.15,2013-01-01 15:27:00,
2013-01-01 10:32:00,75.5,63.3,30.18,SE,145,4.0,6.0,66,0.00,,,0.00,Wunderground v.1.15,2013-01-01 15:32:00,
2013-01-01 10:37:00,75.6,63.0,30.18,SE,127,3.0,8.0,65,0.00,,,0.00,Wunderground v.1.15,2013-01-01 15:37:00,
2013-01-01 10:42:00,75.8,62.8,30.18,West,273,1.0,4.0,64,0.00,,,0.00,Wunderground v.1.15,2013-01-01 15:42:00,
2013-01-01 10:47:00,76.1,62.6,30.18,SSW,203,2.0,10.0,63,0.00,,,0.00,Wunderground v.1.15,2013-01-01 15:47:00,
2013-01-01 10:52:00,76.1,62.6,30.18,SSE,149,1.0,9.0,63,0.00,,,0.00,Wunderground v.1.15,2013-01-01 15:52:00,
2013-01-01 10:57:00,76.4,62.4,30.17,ESE,106,3.0,9.0,62,0.00,,,0.00,Wunderground v.1.15,2013-01-01 15:57:00,
2013-01-01 11:02:00,76.5,62.0,30.17,ESE,122,3.0,9.0,61,0.00,,,0.00,Wunderground v.1.15,2013-01-01 16:02:00,
2013-01-01 11:07:00,76.6,62.6,30.17,WSW,240,2.0,10.0,62,0.00,,,0.00,Wunderground v.1.15,2013-01-01 16:07:00,
2013-01-01 11:12:00,76.6,62.1,30.17,SW,236,4.0,7.0,61,0.00,,,0.00,Wunderground v.1.15,2013-01-01 16:12:00,
2013-01-01 11:17:00,76.8,61.9,30.16,SSW,201,1.0,9.0,60,0.00,,,0.00,Wunderground v.1.15,2013-01-01 16:17:00,
2013-01-01 11:22:00,77.0,62.5,30.16,South,172,3.0,8.0,61,0.00,,,0.00,Wunderground v.1.15,2013-01-01 16:22:00,
2013-01-01 11:27:00,76.7,62.2,30.16,East,91,1.0,10.0,61,0.00,,,0.00,Wunderground v.1.15,2013-01-01 16:27:00,
2013-01-01 11:32:00,76.8,62.8,30.16,SSE,156,3.0,10.0,62,0.00,,,0.00,Wunderground v.1.15,2013-01-01 16:32:00,
2013-01-01 11:37:00,76.9,62.4,30.15,South,174,3.0,10.0,61,0.00,,,0.00,Wunderground v.1.15,2013-01-01 16:37:00,
2013-01-01 11:42:00,77.2,63.2,30.16,East,82,5.0,9.0,62,0.00,,,0.00,Wunderground v.1.15,2013-01-01 16:42:00,
2013-01-01 11:47:00,77.4,62.9,30.15,WSW,249,2.0,12.0,61,0.00,,,0.00,Wunderground v.1.15,2013-01-01 16:47:00,
2013-01-01 11:52:00,77.7,62.7,30.15,WNW,285,4.0,7.0,60,0.00,,,0.00,Wunderground v.1.15,2013-01-01 16:52:00,
2013-01-01 11:57:00,78.1,63.6,30.15,ESE,105,2.0,11.0,61,0.00,,,0.00,Wunderground v.1.15,2013-01-01 16:57:00,
2013-01-01 12:02:00,77.7,62.7,30.15,ENE,76,1.0,5.0,60,0.00,,,0.00,Wunderground v.1.15,2013-01-01 17:02:00,
2013-01-01 12:07:00,77.9,62.9,30.14,SE,132,2.0,9.0,60,0.00,,,0.00,Wunderground v.1.15,2013-01-01 17:07:00,
2013-01-01 12:12:00,77.9,63.4,30.14,SSE,152,3.0,10.0,61,0.00,,,0.00,Wunderground v.1.15,2013-01-01 17:12:00,
2013-01-01 12:17:00,78.1,63.1,30.14,South,176,2.0,10.0,60,0.00,,,0.00,Wunderground v.1.15,2013-01-01 17:17:00,
2013-01-01 12:22:00,78.0,63.0,30.13,SSE,165,6.0,8.0,60,0.00,,,0.00,Wunderground v.1.15,2013-01-01 17:22:00,
2013-01-01 12:27:00,77.9,63.4,30.13,SE,124,5.0,9.0,61,0.00,,,0.00,Wunderground v.1.15,2013-01-01 17:27:00,
2013-01-01 12:32:00,78.0,63.9,30.13,SW,228,2.0,7.0,62,0.00,,,0.00,Wunderground v.1.15,2013-01-01 17:32:00,
2013-01-01 12:37:00,78.1,63.1,30.12,SW,233,4.0,10.0,60,0.00,,,0.00,Wunderground v.1.15,2013-01-01 17:37:00,
2013-01-01 12:42:00,78.1,63.1,30.12,SE,146,1.0,8.0,60,0.00,,,0.00,Wunderground v.1.15,2013-01-01 17:42:00,
2013-01-01 12:47:00,77.7,63.6,30.12,WSW,240,2.0,9.0,62,0.00,,,0.00,Wunderground v.1.15,2013-01-01 17:47:00,
2013-01-01 12:52:00,77.2,64.1,30.11,WSW,242,1.0,7.0,64,0.00,,,0.00,Wunderground v.1.15,2013-01-01 17:52:00,
2013-01-01 12:57:00,77.1,63.5,30.11,SE,141,2.0,7.0,63,0.00,,,0.00,Wunderground v.1.15,2013-01-01 17:57:00,
2013-01-01 13:02:00,77.3,63.7,30.11,SW,222,1.0,6.0,63,0.00,,,0.00,Wunderground v.1.15,2013-01-01 18:02:00,
2013-01-01 13:07:00,77.2,63.6,30.10,SSW,212,4.0,6.0,63,0.00,,,0.00,Wunderground v.1.15,2013-01-01 18:07:00,
2013-01-01 13:12:00,77.1,64.0,30.10,NE,39,2.0,10.0,64,0.00,,,0.00,Wunderground v.1.15,2013-01-01 18:12:00,
2013-01-01 13:17:00,77.2,63.6,30.10,NNE,16,1.0,10.0,63,0.00,,,0.00,Wunderground v.1.15,2013-01-01 18:17:00,
2013-01-01 13:22:00,77.4,64.3,30.09,SSE,152,4.0,9.0,64,0.00,,,0.00,Wunderground v.1.15,2013-01-01 18:22:00,
2013-01-01 13:27:00,77.5,64.8,30.09,East,95,2.0,9.0,65,0.00,,,0.00,Wunderground v.1.15,2013-01-01 18:27:00,
2013-01-01 13:32:00,77.9,64.7,30.09,WSW,255,4.0,4.0,64,0.00,,,0.00,Wunderground v.1.15,2013-01-01 18:32:00,
2013-01-01 13:37:00,78.2,64.6,30.09,SSW,207,6.0,11.0,63,0.00,,,0.00,Wunderground v.1.15,2013-01-01 18:37:00,
2013-01-01 13:43:00,77.7,64.1,30.08,SSE,160,4.0,10.0,63,0.00,,,0.00,Wunderground v.1.15,2013-01-01 18:43:00,
2013-01-01 13:48:00,77.7,64.1,30.08,SSW,203,6.0,10.0,63,0.00,,,0.00,Wunderground v.1.15,2013-01-01 18:48:00,
2013-01-01 13:53:00,77.9,63.8,30.08,SSW,197,3.0,10.0,62,0.00,,,0.00,Wunderground v.1.15,2013-01-01 18:53:00,
2013-01-01 13:58:00,77.7,64.5,30.08,East,96,0.0,10.0,64,0.00,,,0.00,Wunderground v.1.15,2013-01-01 18:58:00,
2013-01-01 14:03:00,77.9,63.8,30.08,SSW,207,5.0,7.0,62,0.00,,,0.00,Wunderground v.1.15,2013-01-01 19:03:00,
2013-01-01 14:08:00,78.1,63.6,30.08,ESE,115,4.0,9.0,61,0.00,,,0.00,Wunderground v.1.15,2013-01-01 19:08:00,
2013-01-01 14:13:00,78.8,64.2,30.08,South,188,0.0,6.0,61,0.00,,,0.00,Wunderground v.1.15,2013-01-01 19:13:00,
2013-01-01 14:18:00,78.8,63.7,30.08,SSW,212,4.0,10.0,60,0.00,,,0.00,Wunderground v.1.15,2013-01-01 19:18:00,
2013-01-01 14:23:00,79.0,63.4,30.08,SSW,210,4.0,6.0,59,0.00,,,0.00,Wunderground v.1.15,2013-01-01 19:23:00,
2013-01-01 14:28:00,79.0,63.9,30.08,SSW,194,1.0,7.0,60,0.00,,,0.00,Wunderground v.1.15,2013-01-01 19:28:00,
2013-01-01 14:33:00,79.4,64.3,30.08,SE,138,5.0,10.0,60,0.00,,,0.00,Wunderground v.1.15,2013-01-01 19:33:00,
2013-01-01 14:38:00,79.1,64.0,30.08,ESE,114,1.0,10.0,60,0.00,,,0.00,Wunderground v.1.15,2013-01-01 19:38:00,
2013-01-01 14:43:00,79.3,64.2,30.08,South,181,0.0,6.0,60,0.00,,,0.00,Wunderground v.1.15,2013-01-01 19:43:00,
2013-01-01 14:48:00,78.8,64.2,30.08,ENE,77,3.0,8.0,61,0.00,,,0.00,Wunderground v.1.15,2013-01-01 19:48:00,
2013-01-01 14:53:00,78.7,64.1,30.08,SSE,152,1.0,6.0,61,0.00,,,0.00,Wunderground v.1.15,2013-01-01 19:53:00,
2013-01-01 14:59:00,79.3,65.1,30.08,WNW,283,9.0,9.0,62,0.00,,,0.00,Wunderground v.1.15,2013-01-01 19:59:00,
2013-01-01 15:04:00,79.0,64.9,30.08,SW,219,3.0,6.0,62,0.00,,,0.00,Wunderground v.1.15,2013-01-01 20:04:00,
2013-01-01 15:09:00,79.0,65.3,30.07,SE,127,4.0,6.0,63,0.00,,,0.00,Wunderground v.1.15,2013-01-01 20:09:00,
2013-01-01 15:14:00,78.6,65.4,30.07,East,91,3.0,9.0,64,0.00,,,0.00,Wunderground v.1.15,2013-01-01 20:14:00,
2013-01-01 15:19:00,78.6,64.5,30.07,East,96,2.0,9.0,62,0.00,,,0.00,Wunderground v.1.15,2013-01-01 20:19:00,
2013-01-01 15:24:00,77.9,64.7,30.08,West,270,1.0,7.0,64,0.00,,,0.00,Wunderground v.1.15,2013-01-01 20:24:00,
2013-01-01 15:29:00,78.1,65.4,30.08,SSE,148,2.0,7.0,65,0.00,,,0.00,Wunderground v.1.15,2013-01-01 20:29:00,
2013-01-01 15:34:00,78.1,64.5,30.08,SSW,201,3.0,10.0,63,0.00,,,0.00,Wunderground v.1.15,2013-01-01 20:34:00,
2013-01-01 15:39:00,78.0,64.8,30.08,SSW,198,4.0,10.0,64,0.00,,,0.00,Wunderground v.1.15,2013-01-01 20:39:00,
2013-01-01 15:44:00,77.8,64.6,30.08,WSW,242,1.0,3.0,64,0.00,,,0.00,Wunderground v.1.15,2013-01-01 20:44:00,
2013-01-01 15:49:00,77.3,64.6,30.08,South,179,3.0,6.0,65,0.00,,,0.00,Wunderground v.1.15,2013-01-01 20:49:00,
2013-01-01 15:54:00,76.8,64.6,30.08,SSW,196,4.0,5.0,66,0.00,,,0.00,Wunderground v.1.15,2013-01-01 20:54:00,
2013-01-01 15:59:00,76.6,64.4,30.08,SSE,150,2.0,6.0,66,0.00,,,0.00,Wunderground v.1.15,2013-01-01 20:59:00,
2013-01-01 16:04:00,76.5,64.3,30.08,ENE,60,1.0,3.0,66,0.00,,,0.00,Wunderground v.1.15,2013-01-01 21:04:00,
2013-01-01 16:09:00,76.3,64.1,30.08,South,190,2.0,4.0,66,0.00,,,0.00,Wunderground v.1.15,2013-01-01 21:09:00,
2013-01-01 16:14:00,76.1,64.3,30.08,SW,226,1.0,3.0,67,0.00,,,0.00,Wunderground v.1.15,2013-01-01 21:14:00,
2013-01-01 16:19:00,76.1,64.3,30.07,SSW,198,3.0,5.0,67,0.00,,,0.00,Wunderground v.1.15,2013-01-01 21:19:00,
2013-01-01 16:24:00,76.0,63.8,30.08,South,191,6.0,6.0,66,0.00,,,0.00,Wunderground v.1.15,2013-01-01 21:24:00,
2013-01-01 16:29:00,75.9,64.2,30.07,SSW,203,0.0,8.0,67,0.00,,,0.00,Wunderground v.1.15,2013-01-01 21:29:00,
2013-01-01 16:34:00,75.8,64.5,30.07,SSW,197,3.0,4.0,68,0.00,,,0.00,Wunderground v.1.15,2013-01-01 21:34:00,
2013-01-01 16:39:00,75.6,64.3,30.07,SSW,211,3.0,4.0,68,0.00,,,0.00,Wunderground v.1.15,2013-01-01 21:39:00,
2013-01-01 16:44:00,75.5,63.8,30.07,West,262,0.0,5.0,67,0.00,,,0.00,Wunderground v.1.15,2013-01-01 21:44:00,
2013-01-01 16:49:00,75.4,64.1,30.07,South,172,1.0,5.0,68,0.00,,,0.00,Wunderground v.1.15,2013-01-01 21:49:00,
2013-01-01 16:54:00,75.4,64.1,30.07,SSW,198,1.0,3.0,68,0.00,,,0.00,Wunderground v.1.15,2013-01-01 21:54:00,
2013-01-01 16:59:00,75.3,63.6,30.08,SSW,203,1.0,3.0,67,0.00,,,0.00,Wunderground v.1.15,2013-01-01 21:59:00,
2013-01-01 17:04:00,75.2,63.5,30.08,South,184,1.0,5.0,67,0.00,,,0.00,Wunderground v.1.15,2013-01-01 22:04:00,
2013-01-01 17:09:00,75.2,63.5,30.07,East,79,1.0,5.0,67,0.00,,,0.00,Wunderground v.1.15,2013-01-01 22:09:00,
2013-01-01 17:14:00,75.1,63.4,30.08,South,184,0.0,3.0,67,0.00,,,0.00,Wunderground v.1.15,2013-01-01 22:14:00,
2013-01-01 17:19:00,75.0,63.3,30.07,SE,139,0.0,4.0,67,0.00,,,0.00,Wunderground v.1.15,2013-01-01 22:19:00,
2013-01-01 17:24:00,75.0,63.7,30.07,ESE,106,0.0,3.0,68,0.00,,,0.00,Wunderground v.1.15,2013-01-01 22:24:00,
2013-01-01 17:29:00,75.0,63.3,30.07,East,84,6.0,6.0,67,0.00,,,0.00,Wunderground v.1.15,2013-01-01 22:29:00,
2013-01-01 17:34:00,74.9,63.6,30.07,South,184,0.0,3.0,68,0.00,,,0.00,Wunderground v.1.15,2013-01-01 22:34:00,
2013-01-01 17:39:00,74.8,63.5,30.07,ESE,102,0.0,4.0,68,0.00,,,0.00,Wunderground v.1.15,2013-01-01 22:39:00,
2013-01-01 17:44:00,74.7,63.9,30.07,ESE,104,0.0,3.0,69,0.00,,,0.00,Wunderground v.1.15,2013-01-01 22:44:00,
2013-01-01 17:49:00,74.5,63.7,30.07,South,179,0.0,3.0,69,0.00,,,0.00,Wunderground v.1.15,2013-01-01 22:49:00,
2013-01-01 17:54:00,74.3,63.5,30.07,SW,214,0.0,2.0,69,0.00,,,0.00,Wunderground v.1.15,2013-01-01 22:54:00,
2013-01-01 17:59:00,74.0,63.2,30.07,SW,232,0.0,2.0,69,0.00,,,0.00,Wunderground v.1.15,2013-01-01 22:59:00,
2013-01-01 18:04:00,73.7,63.3,30.07,SE,142,0.0,2.0,70,0.00,,,0.00,Wunderground v.1.15,2013-01-01 23:04:00,
2013-01-01 18:09:00,73.4,63.0,30.07,East,83,0.0,2.0,70,0.00,,,0.00,Wunderground v.1.15,2013-01-01 23:09:00,
2013-01-01 18:14:00,73.1,63.1,30.08,SE,124,0.0,2.0,71,0.00,,,0.00,Wunderground v.1.15,2013-01-01 23:14:00,
2013-01-01 18:19:00,72.8,62.8,30.08,ESE,122,0.0,2.0,71,0.00,,,0.00,Wunderground v.1.15,2013-01-01 23:19:00,
2013-01-01 18:24:00,72.5,63.0,30.08,ESE,123,0.0,0.0,72,0.00,,,0.00,Wunderground v.1.15,2013-01-01 23:24:00,
2013-01-01 18:30:00,72.3,62.8,30.08,ESE,123,0.0,0.0,72,0.00,,,0.00,Wunderground v.1.15,2013-01-01 23:30:00,
2013-01-01 18:35:00,72.1,63.0,30.08,ESE,108,0.0,1.0,73,0.00,,,0.00,Wunderground v.1.15,2013-01-01 23:35:00,
2013-01-01 18:40:00,72.0,62.9,30.08,ESE,108,0.0,0.0,73,0.00,,,0.00,Wunderground v.1.15,2013-01-01 23:40:00,
2013-01-01 18:45:00,72.0,62.9,30.08,ESE,108,0.0,0.0,73,0.00,,,0.00,Wunderground v.1.15,2013-01-01 23:45:00,
2013-01-01 18:50:00,72.2,63.1,30.08,ESE,108,0.0,0.0,73,0.00,,,0.00,Wunderground v.1.15,2013-01-01 23:50:00,
2013-01-01 18:55:00,72.5,63.0,30.08,East,97,0.0,2.0,72,0.00,,,0.00,Wunderground v.1.15,2013-01-01 23:55:00,
2013-01-01 19:00:00,72.6,63.1,30.08,East,98,0.0,0.0,72,0.00,,,0.00,Wunderground v.1.15,2013-01-02 00:00:00,
2013-01-01 19:05:00,72.6,63.1,30.08,East,97,0.0,0.0,72,0.00,,,0.00,Wunderground v.1.15,2013-01-02 00:05:00,
2013-01-01 19:10:00,72.6,63.4,30.08,East,99,0.0,0.0,73,0.00,,,0.00,Wunderground v.1.15,2013-01-02 00:10:00,
2013-01-01 19:15:00,72.6,63.4,30.08,ESE,102,0.0,1.0,73,0.00,,,0.00,Wunderground v.1.15,2013-01-02 00:15:00,
2013-01-01 19:20:00,72.6,63.8,30.08,ESE,112,0.0,1.0,74,0.00,,,0.00,Wunderground v.1.15,2013-01-02 00:20:00,
2013-01-01 19:25:00,72.4,63.6,30.08,ESE,113,0.0,1.0,74,0.00,,,0.00,Wunderground v.1.15,2013-01-02 00:25:00,
2013-01-01 19:30:00,72.2,63.4,30.08,ESE,113,0.0,0.0,74,0.00,,,0.00,Wunderground v.1.15,2013-01-02 00:30:00,
2013-01-01 19:35:00,71.7,63.4,30.08,ESE,113,0.0,0.0,75,0.00,,,0.00,Wunderground v.1.15,2013-01-02 00:35:00,
2013-01-01 19:40:00,71.4,63.4,30.08,ESE,113,0.0,0.0,76,0.00,,,0.00,Wunderground v.1.15,2013-01-02 00:40:00,
2013-01-01 19:45:00,71.2,63.6,30.09,ESE,113,0.0,0.0,77,0.00,,,0.00,Wunderground v.1.15,2013-01-02 00:45:00,
2013-01-01 19:50:00,70.9,63.3,30.09,ESE,113,0.0,0.0,77,0.00,,,0.00,Wunderground v.1.15,2013-01-02 00:50:00,
2013-01-01 19:55:00,70.7,63.5,30.09,ESE,113,0.0,0.0,78,0.00,,,0.00,Wunderground v.1.15,2013-01-02 00:55:00,
2013-01-01 20:00:00,70.7,63.5,30.09,ESE,113,0.0,0.0,78,0.00,,,0.00,Wunderground v.1.15,2013-01-02 01:00:00,
2013-01-01 20:05:00,70.7,63.5,30.09,ESE,113,0.0,0.0,78,0.00,,,0.00,Wunderground v.1.15,2013-01-02 01:05:00,
2013-01-01 20:10:00,70.6,63.8,30.09,ESE,113,0.0,0.0,79,0.00,,,0.00,Wunderground v.1.15,2013-01-02 01:10:00,
2013-01-01 20:15:00,70.7,63.9,30.09,ESE,113,0.0,0.0,79,0.00,,,0.00,Wunderground v.1.15,2013-01-02 01:15:00,
2013-01-01 20:20:00,70.8,64.0,30.09,ESE,113,0.0,0.0,79,0.00,,,0.00,Wunderground v.1.15,2013-01-02 01:20:00,
2013-01-01 20:25:00,70.9,64.1,30.09,ESE,113,0.0,0.0,79,0.00,,,0.00,Wunderground v.1.15,2013-01-02 01:25:00,
2013-01-01 20:31:00,70.8,64.0,30.09,ESE,113,0.0,0.0,79,0.00,,,0.00,Wunderground v.1.15,2013-01-02 01:31:00,
2013-01-01 20:36:00,70.7,63.9,30.09,ESE,114,0.0,0.0,79,0.00,,,0.00,Wunderground v.1.15,2013-01-02 01:36:00,
2013-01-01 20:41:00,70.5,64.0,30.09,ESE,113,0.0,0.0,80,0.00,,,0.00,Wunderground v.1.15,2013-01-02 01:41:00,
2013-01-01 20:46:00,70.5,64.0,30.09,ESE,115,0.0,0.0,80,0.00,,,0.00,Wunderground v.1.15,2013-01-02 01:46:00,
2013-01-01 20:51:00,70.4,63.9,30.10,ESE,115,0.0,0.0,80,0.00,,,0.00,Wunderground v.1.15,2013-01-02 01:51:00,
2013-01-01 20:56:00,70.4,64.3,30.10,ESE,115,0.0,0.0,81,0.00,,,0.00,Wunderground v.1.15,2013-01-02 01:56:00,
2013-01-01 21:01:00,70.4,64.3,30.10,ESE,114,0.0,0.0,81,0.00,,,0.00,Wunderground v.1.15,2013-01-02 02:01:00,
2013-01-01 21:06:00,70.4,64.3,30.10,ESE,113,0.0,0.0,81,0.00,,,0.00,Wunderground v.1.15,2013-01-02 02:06:00,
2013-01-01 21:11:00,70.4,64.3,30.10,ESE,113,0.0,0.0,81,0.00,,,0.00,Wunderground v.1.15,2013-01-02 02:11:00,
2013-01-01 21:16:00,70.4,64.3,30.10,ESE,113,0.0,0.0,81,0.00,,,0.00,Wunderground v.1.15,2013-01-02 02:16:00,
2013-01-01 21:21:00,70.3,64.2,30.10,ESE,113,0.0,0.0,81,0.00,,,0.00,Wunderground v.1.15,2013-01-02 02:21:00,
2013-01-01 21:26:00,70.2,64.4,30.10,ESE,113,0.0,0.0,82,0.00,,,0.00,Wunderground v.1.15,2013-01-02 02:26:00,
2013-01-01 21:31:00,70.1,64.3,30.10,ESE,113,0.0,0.0,82,0.00,,,0.00,Wunderground v.1.15,2013-01-02 02:31:00,
2013-01-01 21:36:00,70.0,64.9,30.10,ESE,115,0.0,0.0,84,0.00,,,0.00,Wunderground v.1.15,2013-01-02 02:36:00,
2013-01-01 21:41:00,69.7,64.3,30.10,ESE,113,0.0,0.0,83,0.00,,,0.00,Wunderground v.1.15,2013-01-02 02:41:00,
2013-01-01 21:46:00,69.6,64.5,30.10,ESE,113,0.0,0.0,84,0.00,,,0.00,Wunderground v.1.15,2013-01-02 02:46:00,
2013-01-01 21:51:00,69.5,64.5,30.10,ESE,113,0.0,0.0,84,0.00,,,0.00,Wunderground v.1.15,2013-01-02 02:51:00,
2013-01-01 21:56:00,69.4,64.4,30.10,ESE,113,0.0,0.0,84,0.00,,,0.00,Wunderground v.1.15,2013-01-02 02:56:00,
2013-01-01 22:01:00,69.2,64.5,30.10,ESE,114,0.0,0.0,85,0.00,,,0.00,Wunderground v.1.15,2013-01-02 03:01:00,
2013-01-01 22:06:00,69.1,64.4,30.10,ESE,114,0.0,0.0,85,0.00,,,0.00,Wunderground v.1.15,2013-01-02 03:06:00,
2013-01-01 22:11:00,69.1,64.4,30.10,ESE,115,0.0,0.0,85,0.00,,,0.00,Wunderground v.1.15,2013-01-02 03:11:00,
2013-01-01 22:16:00,69.0,64.3,30.10,ESE,114,0.0,0.0,85,0.00,,,0.00,Wunderground v.1.15,2013-01-02 03:16:00,
2013-01-01 22:21:00,68.8,64.4,30.10,ESE,114,0.0,0.0,86,0.00,,,0.00,Wunderground v.1.15,2013-01-02 03:21:00,
2013-01-01 22:26:00,68.7,64.3,30.10,ESE,113,0.0,0.0,86,0.00,,,0.00,Wunderground v.1.15,2013-01-02 03:26:00,
2013-01-01 22:31:00,68.7,64.3,30.10,ESE,113,0.0,0.0,86,0.00,,,0.00,Wunderground v.1.15,2013-01-02 03:31:00,
2013-01-01 22:36:00,68.6,64.6,30.10,ESE,113,0.0,0.0,87,0.00,,,0.00,Wunderground v.1.15,2013-01-02 03:36:00,
2013-01-01 22:41:00,68.5,64.5,30.10,ESE,113,0.0,0.0,87,0.00,,,0.00,Wunderground v.1.15,2013-01-02 03:41:00,
2013-01-01 22:46:00,68.5,64.5,30.10,ESE,115,0.0,0.0,87,0.00,,,0.00,Wunderground v.1.15,2013-01-02 03:46:00,
2013-01-01 22:51:00,68.5,64.5,30.10,ESE,113,0.0,0.0,87,0.00,,,0.00,Wunderground v.1.15,2013-01-02 03:51:00,
2013-01-01 22:56:00,68.4,64.4,30.10,ESE,114,0.0,0.0,87,0.00,,,0.00,Wunderground v.1.15,2013-01-02 03:56:00,
2013-01-01 23:01:00,68.2,64.2,30.09,ESE,114,0.0,0.0,87,0.00,,,0.00,Wunderground v.1.15,2013-01-02 04:01:00,
2013-01-01 23:06:00,68.2,64.2,30.09,ESE,113,0.0,0.0,87,0.00,,,0.00,Wunderground v.1.15,2013-01-02 04:06:00,
2013-01-01 23:11:00,68.0,64.0,30.09,ESE,114,0.0,0.0,87,0.00,,,0.00,Wunderground v.1.15,2013-01-02 04:11:00,
2013-01-01 23:16:00,67.8,64.4,30.09,ESE,115,0.0,0.0,89,0.00,,,0.00,Wunderground v.1.15,2013-01-02 04:16:00,
2013-01-01 23:21:00,67.7,65.0,30.09,ESE,114,0.0,0.0,91,0.00,,,0.00,Wunderground v.1.15,2013-01-02 04:21:00,
2013-01-01 23:26:00,67.3,64.3,30.09,ESE,114,0.0,0.0,90,0.00,,,0.00,Wunderground v.1.15,2013-01-02 04:26:00,
2013-01-01 23:31:00,67.0,64.0,30.09,ESE,115,0.0,0.0,90,0.00,,,0.00,Wunderground v.1.15,2013-01-02 04:31:00,
2013-01-01 23:36:00,67.0,64.0,30.08,ESE,114,0.0,0.0,90,0.00,,,0.00,Wunderground v.1.15,2013-01-02 04:36:00,
2013-01-01 23:41:00,66.9,63.9,30.08,ESE,114,0.0,0.0,90,0.00,,,0.00,Wunderground v.1.15,2013-01-02 04:41:00,
2013-01-01 23:46:00,66.7,63.4,30.08,ESE,114,0.0,0.0,89,0.00,,,0.00,Wunderground v.1.15,2013-01-02 04:46:00,
2013-01-01 23:51:00,66.4,63.4,30.08,ESE,115,0.0,0.0,90,0.00,,,0.00,Wunderground v.1.15,2013-01-02 04:51:00,
2013-01-01 23:56:00,66.1,63.1,30.08,ESE,114,0.0,0.0,90,0.00,,,0.00,Wunderground v.1.15,2013-01-02 04:56:00,